Ana Sayfa
METAR-TAF:

METAR-TAF

Havaalanları :

Gatesville Municipal Airport

Gatesville, Teksas, Amerika Birleşik Devletleri

Enlem: 31-25-16N, Boylam: 097-47-49W, yükseklik: 276 m

Güncel hava durumu gözlemi

Rapor saat 09:15 UTC de 10 dakika önce yapıldı.
Sakin rüzgar
Sıcaklık 18°C
Nem 100%
Basınç 1009 hPa
Görüş mesafesi: 4.0 km
200 ft yükseklikte az bulutlu
1800 ft yükseklikte parçalı bulutlu
2900 ft yükseklikte parçalı çok bulutlu
hafif yağmur

METAR: KGOP 250915Z AUTO 00000KT 2 1/2SM -RA FEW002 SCT018 BKN029 18/18 A2979 RMK AO2

Saat: 04:25 (09:25 UTC)


TAF: eksik

4.000'den fazla havaalanı için hava durumu gözlemleri ve tahminleri (METAR ve TAF raporları).

Kullanılabilir istasyonlar harita üzerinde sarı ve kırmızı noktalarla gösterilir.

İstasyonun adını görmek için fareyi noktanın üzerinde gezdirin.

Sonrasında hava gözlem ve tahminlerini görmek için tıklayın.

Haritayı değiştirmek için: yaklaştırmak için siyah artı işaretli yeşil düğmeye ve uzaklaştırmak için de eksi işaretli düğmeye hızla tıklayın; bitişik haritalar için yeşil okları kullanın.


METAR-TAF: